createdAt,value
2023-03-04T00:04:31.557Z,100648.02
2023-03-04T00:09:54.624Z,100599.45
2023-03-04T00:15:19.407Z,100593.30
2023-03-04T00:20:43.283Z,100567.81
2023-03-04T00:26:08.270Z,100552.86
2023-03-04T00:31:33.346Z,100529.34
2023-03-04T00:36:58.117Z,100510.89
2023-03-04T00:42:20.355Z,100507.39
2023-03-04T00:47:42.624Z,100493.23
2023-03-04T00:53:04.807Z,100488.66
2023-03-04T00:58:29.048Z,100517.46
2023-03-04T01:03:52.435Z,100520.77
2023-03-04T01:09:16.638Z,100525.02
2023-03-04T01:14:39.139Z,100517.02
2023-03-04T01:20:03.903Z,100507.83
2023-03-04T01:25:27.177Z,100531.59
2023-03-04T01:30:50.244Z,100484.64
2023-03-04T01:36:15.281Z,100503.61
2023-03-04T01:41:39.477Z,100488.36
2023-03-04T01:47:05.859Z,100505.80
2023-03-04T01:52:31.061Z,100474.00
2023-03-04T02:03:37.684Z,100473.05
2023-03-04T02:09:00.102Z,100457.75
2023-03-04T02:14:24.577Z,100473.53
2023-03-04T02:20:21.705Z,100446.11
2023-03-04T02:26:16.200Z,100432.00
2023-03-04T02:32:00.280Z,100439.16
2023-03-04T02:37:26.230Z,100438.80
2023-03-04T02:42:59.163Z,100425.09
2023-03-04T02:48:24.583Z,100445.84
2023-03-04T02:53:46.825Z,100417.55
2023-03-04T02:59:09.634Z,100427.30
2023-03-04T03:04:33.114Z,100426.48
2023-03-04T03:09:55.487Z,100427.34
2023-03-04T03:15:18.679Z,100412.18
2023-03-04T03:20:41.341Z,100420.91
2023-03-04T03:26:04.124Z,100404.23
2023-03-04T03:31:26.679Z,100403.30
2023-03-04T03:36:48.941Z,100418.41
2023-03-04T03:42:11.119Z,100401.58
2023-03-04T03:47:35.653Z,100396.47
2023-03-04T03:52:58.043Z,100391.84
2023-03-04T03:58:20.231Z,100396.36
2023-03-04T04:03:42.962Z,100379.72
2023-03-04T04:09:05.436Z,100385.76
2023-03-04T04:14:29.305Z,100400.72
2023-03-04T04:19:51.500Z,100391.91
2023-03-04T04:25:14.653Z,100389.27
2023-03-04T04:30:37.365Z,100389.19
2023-03-04T04:36:01.520Z,100377.66
2023-03-04T04:41:30.395Z,100375.00
2023-03-04T04:46:53.224Z,100364.48
2023-03-04T04:52:15.546Z,100360.83
2023-03-04T04:57:38.115Z,100351.16
2023-03-04T05:03:00.396Z,100356.46
2023-03-04T05:08:23.179Z,100344.06
2023-03-04T05:13:46.225Z,100346.88
2023-03-04T05:19:08.716Z,100342.55
2023-03-04T05:24:30.949Z,100338.27
2023-03-04T05:29:54.335Z,100329.45
2023-03-04T05:35:17.497Z,100327.73
2023-03-04T05:40:42.174Z,100350.66
2023-03-04T05:46:04.561Z,100345.20
2023-03-04T05:51:27.270Z,100345.16
2023-03-04T05:56:49.448Z,100346.88
2023-03-04T06:02:11.717Z,100343.28
2023-03-04T06:07:34.034Z,100344.92
2023-03-04T06:12:56.881Z,100359.97
2023-03-04T06:18:19.589Z,100369.44
2023-03-04T06:23:42.344Z,100345.43
2023-03-04T06:29:04.537Z,100333.04
2023-03-04T06:34:30.151Z,100341.77
2023-03-04T06:39:52.791Z,100347.72
2023-03-04T06:45:16.803Z,100335.25
2023-03-04T06:50:39.078Z,100337.83
2023-03-04T06:56:01.965Z,100346.55
2023-03-04T07:01:33.739Z,100343.83
2023-03-04T07:06:56.491Z,100344.84
2023-03-04T07:12:19.544Z,100344.14
2023-03-04T07:17:41.737Z,100344.22
2023-03-04T07:23:04.045Z,100322.94
2023-03-04T07:28:26.255Z,100355.52
2023-03-04T07:33:48.751Z,100338.84
2023-03-04T07:39:11.634Z,100331.01
2023-03-04T07:44:33.806Z,100319.55
2023-03-04T07:49:56.576Z,100324.16
2023-03-04T07:55:20.122Z,100319.70
2023-03-04T08:00:42.445Z,100324.00
2023-03-04T08:06:04.625Z,100299.16
2023-03-04T08:11:29.686Z,100310.55
2023-03-04T08:16:53.064Z,100311.23
2023-03-04T08:22:15.527Z,100290.89
2023-03-04T08:27:37.924Z,100294.48
2023-03-04T08:33:00.802Z,100294.55
2023-03-04T08:38:23.336Z,100288.56
2023-03-04T08:43:46.456Z,100288.77
2023-03-04T08:49:09.265Z,100286.97
2023-03-04T08:54:31.587Z,100287.63
2023-03-04T08:59:53.877Z,100287.70
2023-03-04T09:05:16.241Z,100287.63
2023-03-04T09:10:39.401Z,100291.05
2023-03-04T09:16:06.299Z,100315.06
2023-03-04T09:21:29.816Z,100309.97
2023-03-04T09:26:52.132Z,100316.91
2023-03-04T09:32:16.023Z,100314.47
2023-03-04T09:37:41.190Z,100305.98
2023-03-04T09:43:09.187Z,100315.66
2023-03-04T09:48:39.210Z,100295.09
2023-03-04T09:54:24.652Z,100299.05
2023-03-04T09:59:57.260Z,100293.70
2023-03-04T10:05:26.625Z,100304.06
2023-03-04T10:10:55.126Z,100296.42
2023-03-04T10:16:21.731Z,100290.04
2023-03-04T10:21:57.335Z,100290.09
2023-03-04T10:27:25.246Z,100300.41
2023-03-04T10:32:49.149Z,100282.16
2023-03-04T10:38:13.270Z,100295.55
2023-03-04T10:43:37.004Z,100291.83
2023-03-04T10:49:00.429Z,100300.75
2023-03-04T10:54:39.908Z,100297.51
2023-03-04T11:00:34.249Z,100290.77
2023-03-04T11:05:56.585Z,100303.56
2023-03-04T11:11:28.062Z,100305.27
2023-03-04T11:16:53.236Z,100304.17
2023-03-04T11:22:19.404Z,100325.11
2023-03-04T11:27:54.301Z,100323.12
2023-03-04T11:33:24.576Z,100319.36
2023-03-04T11:38:57.317Z,100350.67
2023-03-04T11:44:20.531Z,100334.19
2023-03-04T11:50:20.669Z,100317.42
2023-03-04T11:56:02.659Z,100316.41
2023-03-04T12:01:41.643Z,100332.29
2023-03-04T12:07:17.646Z,100333.66
2023-03-04T12:13:07.982Z,100335.60
2023-03-04T12:18:39.646Z,100330.92
2023-03-04T12:24:20.154Z,100357.03
2023-03-04T12:30:07.991Z,100331.77
2023-03-04T12:42:03.466Z,100369.36
2023-03-04T12:48:17.210Z,100387.77
2023-03-04T12:54:06.271Z,100358.22
2023-03-04T12:59:32.815Z,100349.45
2023-03-04T13:05:05.838Z,100355.95
2023-03-04T13:10:32.793Z,100369.70
2023-03-04T13:15:58.532Z,100370.77
2023-03-04T13:21:32.040Z,100361.84
2023-03-04T13:26:55.640Z,100359.34
2023-03-04T13:32:44.772Z,100376.13
2023-03-04T13:38:15.346Z,100364.64
2023-03-04T13:43:48.370Z,100371.69
2023-03-04T13:49:14.405Z,100396.19
2023-03-04T13:54:50.426Z,100380.42
2023-03-04T14:00:19.747Z,100364.12
2023-03-04T14:05:42.044Z,100363.72
2023-03-04T14:11:10.744Z,100354.80
2023-03-04T14:16:36.445Z,100359.75
2023-03-04T14:22:00.444Z,100376.97
2023-03-04T14:27:27.862Z,100364.83
2023-03-04T14:32:52.066Z,100364.56
2023-03-04T14:38:25.026Z,100405.81
2023-03-04T14:43:50.871Z,100377.11
2023-03-04T14:49:16.761Z,100391.75
2023-03-04T14:54:50.842Z,100395.61
2023-03-04T15:00:34.425Z,100387.66
2023-03-04T15:05:58.806Z,100395.07
2023-03-04T15:11:28.364Z,100398.20
2023-03-04T15:17:08.552Z,100404.16
2023-03-04T15:22:30.889Z,100406.94
2023-03-04T15:27:54.935Z,100406.27
2023-03-04T15:33:21.151Z,100434.08
2023-03-04T15:38:43.469Z,100428.35
2023-03-04T15:44:06.860Z,100445.73
2023-03-04T15:49:30.268Z,100448.66
2023-03-04T15:54:53.027Z,100457.77
2023-03-04T16:00:17.148Z,100494.70
2023-03-04T16:05:42.879Z,100493.66
2023-03-04T16:11:05.656Z,100487.45
2023-03-04T16:16:31.812Z,100504.06
2023-03-04T16:21:54.526Z,100498.84
2023-03-04T16:27:20.583Z,100522.32
2023-03-04T16:32:43.142Z,100514.85
2023-03-04T16:38:07.131Z,100515.99
2023-03-04T16:43:30.997Z,100545.89
2023-03-04T16:49:52.127Z,100549.95
2023-03-04T16:55:16.201Z,100551.25
2023-03-04T17:00:40.362Z,100585.09
2023-03-04T17:06:02.569Z,100575.70
2023-03-04T17:11:28.247Z,100590.14
2023-03-04T17:16:51.678Z,100605.25
2023-03-04T17:22:16.781Z,100633.81
2023-03-04T17:27:39.222Z,100614.78
2023-03-04T17:33:01.787Z,100620.89
2023-03-04T17:38:25.602Z,100628.48
2023-03-04T17:43:52.323Z,100634.15
2023-03-04T17:49:17.938Z,100635.73
2023-03-04T17:54:40.986Z,100627.06
2023-03-04T18:00:04.191Z,100640.83
2023-03-04T18:05:27.260Z,100639.47
2023-03-04T18:10:51.212Z,100635.57
2023-03-04T18:16:15.106Z,100635.25
2023-03-04T18:21:39.031Z,100624.06
2023-03-04T18:27:01.363Z,100634.27
2023-03-04T18:32:24.271Z,100640.11
2023-03-04T18:37:48.268Z,100638.02
2023-03-04T18:43:13.005Z,100640.10
2023-03-04T18:48:35.687Z,100641.72
2023-03-04T18:53:59.812Z,100651.05
2023-03-04T18:59:30.627Z,100649.12
2023-03-04T19:04:53.988Z,100647.19
2023-03-04T19:10:17.235Z,100649.31
2023-03-04T19:15:39.463Z,100661.13
2023-03-04T19:21:04.178Z,100660.34
2023-03-04T19:26:28.512Z,100661.94
2023-03-04T19:31:53.125Z,100666.39
2023-03-04T19:37:16.856Z,100665.89
2023-03-04T19:42:39.155Z,100668.06
2023-03-04T19:48:04.279Z,100670.06
2023-03-04T19:53:29.456Z,100665.33
2023-03-04T19:58:52.170Z,100663.17
2023-03-04T20:04:25.071Z,100658.23
2023-03-04T20:09:48.524Z,100659.68
2023-03-04T20:15:15.260Z,100673.67
2023-03-04T20:20:38.972Z,100663.38
2023-03-04T20:26:03.611Z,100666.27
2023-03-04T20:31:38.393Z,100664.64
2023-03-04T20:37:03.662Z,100671.75
2023-03-04T20:42:28.500Z,100658.14
2023-03-04T20:47:52.210Z,100660.70
2023-03-04T20:53:17.918Z,100659.52
2023-03-04T20:58:41.583Z,100655.84
2023-03-04T21:04:07.146Z,100655.91
2023-03-04T21:09:37.330Z,100649.66
2023-03-04T21:15:02.000Z,100646.94
2023-03-04T21:20:26.268Z,100646.90
2023-03-04T21:25:49.114Z,100644.34
2023-03-04T21:31:11.981Z,100642.78
2023-03-04T21:36:35.387Z,100638.50
2023-03-04T21:42:00.019Z,100628.13
2023-03-04T21:47:25.765Z,100629.22
2023-03-04T21:52:48.438Z,100622.41
2023-03-04T21:58:13.093Z,100618.27
2023-03-04T22:03:37.600Z,100609.81
2023-03-04T22:09:02.405Z,100611.02
2023-03-04T22:14:28.793Z,100611.80
2023-03-04T22:19:55.503Z,100611.02
2023-03-04T22:25:19.178Z,100604.13
2023-03-04T22:30:44.479Z,100597.89
2023-03-04T22:36:08.889Z,100595.27
2023-03-04T22:41:34.602Z,100592.87
2023-03-04T22:46:58.888Z,100590.22
2023-03-04T22:52:24.055Z,100593.59
2023-03-04T22:57:48.886Z,100590.11
2023-03-04T23:03:13.582Z,100588.41
2023-03-04T23:08:37.989Z,100584.00
2023-03-04T23:14:05.591Z,100583.08
2023-03-04T23:19:31.746Z,100569.95
2023-03-04T23:24:58.611Z,100570.75
2023-03-04T23:30:24.541Z,100569.08
2023-03-04T23:35:49.291Z,100557.10
2023-03-04T23:41:14.307Z,100560.89
2023-03-04T23:46:39.631Z,100553.14
2023-03-04T23:52:04.217Z,100544.47
2023-03-04T23:57:28.302Z,100544.42
